sensor_id;sensor_type;location;lat;lon;timestamp;pressure;altitude;pressure_sealevel;temperature;humidity
10806;BME280;5455;53.224;6.000;2022-12-18T00:02:13;102763.47;;;-3.10;100.00
10806;BME280;5455;53.224;6.000;2022-12-18T00:04:40;102777.53;;;-3.08;100.00
10806;BME280;5455;53.224;6.000;2022-12-18T00:07:07;102770.28;;;-3.07;100.00
10806;BME280;5455;53.224;6.000;2022-12-18T00:09:34;102764.50;;;-3.11;100.00
10806;BME280;5455;53.224;6.000;2022-12-18T00:12:06;102760.13;;;-3.12;100.00
10806;BME280;5455;53.224;6.000;2022-12-18T00:14:44;102776.13;;;-3.10;100.00
10806;BME280;5455;53.224;6.000;2022-12-18T00:17:11;102770.50;;;-3.09;100.00
10806;BME280;5455;53.224;6.000;2022-12-18T00:19:38;102772.16;;;-3.08;100.00
10806;BME280;5455;53.224;6.000;2022-12-18T00:22:05;102778.00;;;-3.11;100.00
10806;BME280;5455;53.224;6.000;2022-12-18T00:24:33;102780.88;;;-3.12;100.00
10806;BME280;5455;53.224;6.000;2022-12-18T00:27:00;102788.81;;;-3.17;100.00
10806;BME280;5455;53.224;6.000;2022-12-18T00:29:27;102779.69;;;-3.16;100.00
10806;BME280;5455;53.224;6.000;2022-12-18T00:31:54;102782.59;;;-3.18;100.00
10806;BME280;5455;53.224;6.000;2022-12-18T00:34:21;102785.69;;;-3.14;100.00
10806;BME280;5455;53.224;6.000;2022-12-18T00:36:48;102778.03;;;-3.17;100.00
10806;BME280;5455;53.224;6.000;2022-12-18T00:39:15;102772.94;;;-3.25;100.00
10806;BME280;5455;53.224;6.000;2022-12-18T00:41:44;102781.06;;;-3.32;100.00
10806;BME280;5455;53.224;6.000;2022-12-18T00:44:30;102774.69;;;-3.38;100.00
10806;BME280;5455;53.224;6.000;2022-12-18T00:46:57;102772.84;;;-3.44;100.00
10806;BME280;5455;53.224;6.000;2022-12-18T00:49:24;102778.44;;;-3.45;100.00
10806;BME280;5455;53.224;6.000;2022-12-18T00:51:55;102780.34;;;-3.46;100.00
10806;BME280;5455;53.224;6.000;2022-12-18T00:54:22;102788.63;;;-3.47;100.00
10806;BME280;5455;53.224;6.000;2022-12-18T00:56:49;102789.44;;;-3.40;100.00
10806;BME280;5455;53.224;6.000;2022-12-18T00:59:17;102788.13;;;-3.31;100.00
10806;BME280;5455;53.224;6.000;2022-12-18T01:01:45;102794.09;;;-3.29;100.00
10806;BME280;5455;53.224;6.000;2022-12-18T01:04:14;102797.63;;;-3.28;100.00
10806;BME280;5455;53.224;6.000;2022-12-18T01:06:44;102796.81;;;-3.29;100.00
10806;BME280;5455;53.224;6.000;2022-12-18T01:09:12;102793.28;;;-3.29;100.00
10806;BME280;5455;53.224;6.000;2022-12-18T01:11:39;102796.66;;;-3.34;100.00
10806;BME280;5455;53.224;6.000;2022-12-18T01:14:06;102800.81;;;-3.38;100.00
10806;BME280;5455;53.224;6.000;2022-12-18T01:16:33;102816.78;;;-3.37;100.00
10806;BME280;5455;53.224;6.000;2022-12-18T01:19:03;102821.78;;;-3.40;100.00
10806;BME280;5455;53.224;6.000;2022-12-18T01:21:30;102823.06;;;-3.43;100.00
10806;BME280;5455;53.224;6.000;2022-12-18T01:24:02;102807.50;;;-3.47;100.00
10806;BME280;5455;53.224;6.000;2022-12-18T01:26:30;102815.59;;;-3.47;100.00
10806;BME280;5455;53.224;6.000;2022-12-18T01:28:57;102819.75;;;-3.51;100.00
10806;BME280;5455;53.224;6.000;2022-12-18T01:31:30;102817.50;;;-3.54;100.00
10806;BME280;5455;53.224;6.000;2022-12-18T01:34:00;102802.00;;;-3.59;100.00
10806;BME280;5455;53.224;6.000;2022-12-18T01:36:32;102794.97;;;-3.66;100.00
10806;BME280;5455;53.224;6.000;2022-12-18T01:39:01;102788.19;;;-3.75;100.00
10806;BME280;5455;53.224;6.000;2022-12-18T01:41:30;102797.09;;;-3.75;100.00
10806;BME280;5455;53.224;6.000;2022-12-18T01:47:30;102822.41;;;-3.76;100.00
10806;BME280;5455;53.224;6.000;2022-12-18T01:50:02;102831.72;;;-3.78;100.00
10806;BME280;5455;53.224;6.000;2022-12-18T01:52:32;102839.44;;;-3.82;100.00
10806;BME280;5455;53.224;6.000;2022-12-18T01:55:00;102841.31;;;-3.82;100.00
10806;BME280;5455;53.224;6.000;2022-12-18T01:57:28;102833.41;;;-3.77;100.00
10806;BME280;5455;53.224;6.000;2022-12-18T02:00:00;102839.19;;;-3.74;100.00
10806;BME280;5455;53.224;6.000;2022-12-18T02:02:40;102842.31;;;-3.77;100.00
10806;BME280;5455;53.224;6.000;2022-12-18T02:05:08;102838.19;;;-3.79;100.00
10806;BME280;5455;53.224;6.000;2022-12-18T02:10:30;102833.41;;;-3.84;100.00
10806;BME280;5455;53.224;6.000;2022-12-18T02:13:20;102834.47;;;-3.85;100.00
10806;BME280;5455;53.224;6.000;2022-12-18T02:16:02;102824.56;;;-3.91;100.00
10806;BME280;5455;53.224;6.000;2022-12-18T02:18:34;102826.44;;;-3.92;100.00
10806;BME280;5455;53.224;6.000;2022-12-18T02:21:14;102816.06;;;-3.95;100.00
10806;BME280;5455;53.224;6.000;2022-12-18T02:23:50;102814.84;;;-3.99;100.00
10806;BME280;5455;53.224;6.000;2022-12-18T02:26:26;102810.31;;;-4.05;100.00
10806;BME280;5455;53.224;6.000;2022-12-18T02:29:36;102803.50;;;-4.07;100.00
10806;BME280;5455;53.224;6.000;2022-12-18T02:32:10;102793.31;;;-4.05;100.00
10806;BME280;5455;53.224;6.000;2022-12-18T02:34:40;102794.97;;;-4.04;100.00
10806;BME280;5455;53.224;6.000;2022-12-18T02:37:15;102786.50;;;-4.08;100.00
10806;BME280;5455;53.224;6.000;2022-12-18T02:39:45;102804.94;;;-4.11;100.00
10806;BME280;5455;53.224;6.000;2022-12-18T02:42:16;102797.28;;;-4.14;100.00
10806;BME280;5455;53.224;6.000;2022-12-18T02:44:45;102798.13;;;-4.14;100.00
10806;BME280;5455;53.224;6.000;2022-12-18T02:47:18;102796.69;;;-4.16;100.00
10806;BME280;5455;53.224;6.000;2022-12-18T03:01:15;102789.94;;;-4.38;100.00
10806;BME280;5455;53.224;6.000;2022-12-18T03:03:56;102795.72;;;-4.41;100.00
10806;BME280;5455;53.224;6.000;2022-12-18T03:06:49;102789.97;;;-4.45;100.00
10806;BME280;5455;53.224;6.000;2022-12-18T03:09:32;102797.00;;;-4.51;100.00
10806;BME280;5455;53.224;6.000;2022-12-18T03:12:15;102805.31;;;-4.52;100.00
10806;BME280;5455;53.224;6.000;2022-12-18T03:15:06;102805.94;;;-4.57;100.00
10806;BME280;5455;53.224;6.000;2022-12-18T03:17:50;102806.97;;;-4.58;100.00
10806;BME280;5455;53.224;6.000;2022-12-18T03:20:21;102793.94;;;-4.61;100.00
10806;BME280;5455;53.224;6.000;2022-12-18T03:23:04;102804.09;;;-4.63;100.00
10806;BME280;5455;53.224;6.000;2022-12-18T03:25:37;102795.81;;;-4.68;100.00
10806;BME280;5455;53.224;6.000;2022-12-18T03:28:05;102794.38;;;-4.70;100.00
10806;BME280;5455;53.224;6.000;2022-12-18T03:30:37;102797.47;;;-4.73;100.00
10806;BME280;5455;53.224;6.000;2022-12-18T03:33:26;102800.16;;;-4.73;100.00
10806;BME280;5455;53.224;6.000;2022-12-18T03:35:56;102804.53;;;-4.72;100.00
10806;BME280;5455;53.224;6.000;2022-12-18T03:38:23;102802.44;;;-4.70;100.00
10806;BME280;5455;53.224;6.000;2022-12-18T03:41:07;102804.09;;;-4.76;100.00
10806;BME280;5455;53.224;6.000;2022-12-18T03:46:47;102798.31;;;-4.79;100.00
10806;BME280;5455;53.224;6.000;2022-12-18T03:49:35;102797.47;;;-4.80;100.00
10806;BME280;5455;53.224;6.000;2022-12-18T03:52:11;102791.25;;;-4.80;100.00
10806;BME280;5455;53.224;6.000;2022-12-18T03:54:41;102791.69;;;-4.83;100.00
10806;BME280;5455;53.224;6.000;2022-12-18T03:57:21;102789.41;;;-4.86;100.00
10806;BME280;5455;53.224;6.000;2022-12-18T03:59:56;102790.47;;;-4.87;100.00
10806;BME280;5455;53.224;6.000;2022-12-18T04:02:28;102799.78;;;-4.90;100.00
10806;BME280;5455;53.224;6.000;2022-12-18T04:05:02;102807.63;;;-4.95;100.00
10806;BME280;5455;53.224;6.000;2022-12-18T04:07:30;102805.59;;;-4.99;100.00
10806;BME280;5455;53.224;6.000;2022-12-18T04:09:59;102799.19;;;-5.05;100.00
10806;BME280;5455;53.224;6.000;2022-12-18T04:12:30;102797.28;;;-5.05;100.00
10806;BME280;5455;53.224;6.000;2022-12-18T04:14:57;102795.66;;;-5.06;100.00
10806;BME280;5455;53.224;6.000;2022-12-18T04:17:24;102799.19;;;-5.05;100.00
10806;BME280;5455;53.224;6.000;2022-12-18T04:19:51;102791.91;;;-5.05;100.00
10806;BME280;5455;53.224;6.000;2022-12-18T04:22:19;102789.63;;;-5.08;100.00
10806;BME280;5455;53.224;6.000;2022-12-18T04:24:50;102791.09;;;-5.12;100.00
10806;BME280;5455;53.224;6.000;2022-12-18T04:27:26;102785.50;;;-5.10;100.00
10806;BME280;5455;53.224;6.000;2022-12-18T04:29:53;102792.75;;;-5.11;100.00
10806;BME280;5455;53.224;6.000;2022-12-18T04:32:20;102783.44;;;-5.15;100.00
10806;BME280;5455;53.224;6.000;2022-12-18T04:34:47;102782.84;;;-5.17;100.00
10806;BME280;5455;53.224;6.000;2022-12-18T04:37:15;102782.00;;;-5.17;100.00
10806;BME280;5455;53.224;6.000;2022-12-18T04:39:43;102778.06;;;-5.21;100.00
10806;BME280;5455;53.224;6.000;2022-12-18T04:42:18;102785.13;;;-5.20;100.00
10806;BME280;5455;53.224;6.000;2022-12-18T04:44:45;102792.75;;;-5.24;100.00
10806;BME280;5455;53.224;6.000;2022-12-18T04:47:12;102798.13;;;-5.24;100.00
10806;BME280;5455;53.224;6.000;2022-12-18T04:49:39;102792.53;;;-5.22;100.00
10806;BME280;5455;53.224;6.000;2022-12-18T04:52:07;102795.44;;;-5.24;100.00
10806;BME280;5455;53.224;6.000;2022-12-18T04:54:34;102793.78;;;-5.25;100.00
10806;BME280;5455;53.224;6.000;2022-12-18T04:57:01;102791.31;;;-5.26;100.00
10806;BME280;5455;53.224;6.000;2022-12-18T04:59:28;102790.91;;;-5.23;100.00
10806;BME280;5455;53.224;6.000;2022-12-18T05:01:55;102793.78;;;-5.25;100.00
10806;BME280;5455;53.224;6.000;2022-12-18T05:04:22;102791.31;;;-5.26;100.00
10806;BME280;5455;53.224;6.000;2022-12-18T05:06:48;102803.50;;;-5.30;100.00
10806;BME280;5455;53.224;6.000;2022-12-18T05:09:15;102805.78;;;-5.27;100.00
10806;BME280;5455;53.224;6.000;2022-12-18T05:11:42;102804.13;;;-5.28;100.00
10806;BME280;5455;53.224;6.000;2022-12-18T05:14:11;102804.34;;;-5.30;100.00
10806;BME280;5455;53.224;6.000;2022-12-18T05:16:38;102801.66;;;-5.30;100.00
10806;BME280;5455;53.224;6.000;2022-12-18T05:19:05;102799.78;;;-5.29;100.00
10806;BME280;5455;53.224;6.000;2022-12-18T05:21:32;102800.81;;;-5.30;100.00
10806;BME280;5455;53.224;6.000;2022-12-18T05:23:59;102801.66;;;-5.30;100.00
10806;BME280;5455;53.224;6.000;2022-12-18T05:26:25;102806.19;;;-5.30;100.00
10806;BME280;5455;53.224;6.000;2022-12-18T05:28:52;102815.91;;;-5.29;100.00
10806;BME280;5455;53.224;6.000;2022-12-18T05:31:19;102826.69;;;-5.29;100.00
10806;BME280;5455;53.224;6.000;2022-12-18T05:33:46;102824.19;;;-5.31;100.00
10806;BME280;5455;53.224;6.000;2022-12-18T05:36:13;102829.78;;;-5.32;100.00
10806;BME280;5455;53.224;6.000;2022-12-18T05:38:40;102829.13;;;-5.34;100.00
10806;BME280;5455;53.224;6.000;2022-12-18T05:41:08;102839.69;;;-5.33;100.00
10806;BME280;5455;53.224;6.000;2022-12-18T05:43:36;102844.22;;;-5.33;100.00
10806;BME280;5455;53.224;6.000;2022-12-18T05:46:11;102846.09;;;-5.34;100.00
10806;BME280;5455;53.224;6.000;2022-12-18T05:48:40;102849.41;;;-5.32;100.00
10806;BME280;5455;53.224;6.000;2022-12-18T05:51:14;102850.44;;;-5.33;100.00
10806;BME280;5455;53.224;6.000;2022-12-18T05:53:41;102857.47;;;-5.32;100.00
10806;BME280;5455;53.224;6.000;2022-12-18T05:56:15;102857.47;;;-5.32;100.00
10806;BME280;5455;53.224;6.000;2022-12-18T05:58:42;102853.13;;;-5.33;100.00
10806;BME280;5455;53.224;6.000;2022-12-18T06:01:13;102851.06;;;-5.31;100.00
10806;BME280;5455;53.224;6.000;2022-12-18T06:03:41;102851.69;;;-5.29;100.00
10806;BME280;5455;53.224;6.000;2022-12-18T06:06:19;102851.69;;;-5.29;100.00
10806;BME280;5455;53.224;6.000;2022-12-18T06:08:47;102847.13;;;-5.28;100.00
10806;BME280;5455;53.224;6.000;2022-12-18T06:11:26;102840.53;;;-5.32;100.00
10806;BME280;5455;53.224;6.000;2022-12-18T06:13:56;102835.75;;;-5.37;100.00
10806;BME280;5455;53.224;6.000;2022-12-18T06:16:26;102834.28;;;-5.39;100.00
10806;BME280;5455;53.224;6.000;2022-12-18T06:18:56;102825.63;;;-5.41;100.00
10806;BME280;5455;53.224;6.000;2022-12-18T06:21:25;102820.44;;;-5.43;100.00
10806;BME280;5455;53.224;6.000;2022-12-18T06:23:51;102820.22;;;-5.48;100.00
10806;BME280;5455;53.224;6.000;2022-12-18T06:26:19;102823.09;;;-5.49;100.00
10806;BME280;5455;53.224;6.000;2022-12-18T06:28:53;102826.00;;;-5.51;100.00
10806;BME280;5455;53.224;6.000;2022-12-18T06:31:20;102821.88;;;-5.53;100.00
10806;BME280;5455;53.224;6.000;2022-12-18T06:33:47;102811.31;;;-5.55;100.00
10806;BME280;5455;53.224;6.000;2022-12-18T06:36:14;102817.75;;;-5.56;100.00
10806;BME280;5455;53.224;6.000;2022-12-18T06:38:42;102810.31;;;-5.54;100.00
10806;BME280;5455;53.224;6.000;2022-12-18T06:41:14;102803.47;;;-5.57;100.00
10806;BME280;5455;53.224;6.000;2022-12-18T06:43:42;102802.84;;;-5.59;100.00
10806;BME280;5455;53.224;6.000;2022-12-18T06:46:10;102803.88;;;-5.60;100.00
10806;BME280;5455;53.224;6.000;2022-12-18T06:48:37;102790.84;;;-5.63;100.00
10806;BME280;5455;53.224;6.000;2022-12-18T06:51:04;102786.72;;;-5.65;100.00
10806;BME280;5455;53.224;6.000;2022-12-18T06:53:32;102784.22;;;-5.67;100.00
10806;BME280;5455;53.224;6.000;2022-12-18T06:56:04;102785.91;;;-5.66;100.00
10806;BME280;5455;53.224;6.000;2022-12-18T06:58:36;102781.75;;;-5.68;100.00
10806;BME280;5455;53.224;6.000;2022-12-18T07:01:04;102783.63;;;-5.69;100.00
10806;BME280;5455;53.224;6.000;2022-12-18T07:03:32;102772.88;;;-5.69;100.00
10806;BME280;5455;53.224;6.000;2022-12-18T07:05:59;102764.59;;;-5.67;100.00
10806;BME280;5455;53.224;6.000;2022-12-18T07:08:26;102769.78;;;-5.66;100.00
10806;BME280;5455;53.224;6.000;2022-12-18T07:10:55;102758.81;;;-5.64;100.00
10806;BME280;5455;53.224;6.000;2022-12-18T07:13:22;102755.69;;;-5.68;100.00
10806;BME280;5455;53.224;6.000;2022-12-18T07:15:49;102771.41;;;-5.65;100.00
10806;BME280;5455;53.224;6.000;2022-12-18T07:18:16;102778.03;;;-5.61;100.00
10806;BME280;5455;53.224;6.000;2022-12-18T07:20:43;102778.66;;;-5.59;100.00
10806;BME280;5455;53.224;6.000;2022-12-18T07:23:11;102774.94;;;-5.58;100.00
10806;BME280;5455;53.224;6.000;2022-12-18T07:25:38;102768.56;;;-5.57;100.00
10806;BME280;5455;53.224;6.000;2022-12-18T07:28:06;102758.00;;;-5.58;100.00
10806;BME280;5455;53.224;6.000;2022-12-18T07:30:39;102771.44;;;-5.58;100.00
10806;BME280;5455;53.224;6.000;2022-12-18T07:33:07;102771.44;;;-5.58;100.00
10806;BME280;5455;53.224;6.000;2022-12-18T07:35:37;102783.63;;;-5.56;100.00
10806;BME280;5455;53.224;6.000;2022-12-18T07:38:03;102783.22;;;-5.52;100.00
10806;BME280;5455;53.224;6.000;2022-12-18T07:40:31;102778.88;;;-5.53;100.00
10806;BME280;5455;53.224;6.000;2022-12-18T07:42:57;102787.38;;;-5.50;100.00
10806;BME280;5455;53.224;6.000;2022-12-18T07:45:24;102787.16;;;-5.48;100.00
10806;BME280;5455;53.224;6.000;2022-12-18T07:47:51;102801.19;;;-5.46;100.00
10806;BME280;5455;53.224;6.000;2022-12-18T07:50:18;102797.31;;;-5.44;100.00
10806;BME280;5455;53.224;6.000;2022-12-18T07:52:45;102792.53;;;-5.42;100.00
10806;BME280;5455;53.224;6.000;2022-12-18T07:55:13;102784.25;;;-5.40;100.00
10806;BME280;5455;53.224;6.000;2022-12-18T07:57:40;102769.78;;;-5.39;100.00
10806;BME280;5455;53.224;6.000;2022-12-18T08:00:17;102755.75;;;-5.35;100.00
10806;BME280;5455;53.224;6.000;2022-12-18T08:02:44;102767.53;;;-5.29;100.00
10806;BME280;5455;53.224;6.000;2022-12-18T08:05:11;102759.25;;;-5.28;100.00
10806;BME280;5455;53.224;6.000;2022-12-18T08:07:38;102751.81;;;-5.26;100.00
10806;BME280;5455;53.224;6.000;2022-12-18T08:10:05;102763.59;;;-5.20;100.00
10806;BME280;5455;53.224;6.000;2022-12-18T08:12:33;102761.53;;;-5.18;100.00
10806;BME280;5455;53.224;6.000;2022-12-18T08:15:00;102753.03;;;-5.15;100.00
10806;BME280;5455;53.224;6.000;2022-12-18T08:17:27;102755.31;;;-5.12;100.00
10806;BME280;5455;53.224;6.000;2022-12-18T08:19:54;102760.28;;;-5.09;100.00
10806;BME280;5455;53.224;6.000;2022-12-18T08:22:21;102766.91;;;-5.05;100.00
10806;BME280;5455;53.224;6.000;2022-12-18T08:24:48;102765.84;;;-4.97;100.00
10806;BME280;5455;53.224;6.000;2022-12-18T08:27:15;102757.16;;;-4.93;100.00
10806;BME280;5455;53.224;6.000;2022-12-18T08:29:58;102766.44;;;-4.89;100.00
10806;BME280;5455;53.224;6.000;2022-12-18T08:32:26;102759.41;;;-4.83;100.00
10806;BME280;5455;53.224;6.000;2022-12-18T08:34:54;102768.72;;;-4.79;100.00
10806;BME280;5455;53.224;6.000;2022-12-18T08:37:20;102770.56;;;-4.73;100.00
10806;BME280;5455;53.224;6.000;2022-12-18T08:39:48;102775.09;;;-4.67;100.00
10806;BME280;5455;53.224;6.000;2022-12-18T08:42:15;102783.38;;;-4.62;100.00
10806;BME280;5455;53.224;6.000;2022-12-18T08:45:01;102786.03;;;-4.56;100.00
10806;BME280;5455;53.224;6.000;2022-12-18T08:47:28;102799.69;;;-4.51;100.00
10806;BME280;5455;53.224;6.000;2022-12-18T08:49:55;102791.19;;;-4.48;100.00
10806;BME280;5455;53.224;6.000;2022-12-18T08:52:22;102786.63;;;-4.40;100.00
10806;BME280;5455;53.224;6.000;2022-12-18T08:54:49;102784.75;;;-4.33;100.00
10806;BME280;5455;53.224;6.000;2022-12-18T08:57:16;102780.16;;;-4.26;100.00
10806;BME280;5455;53.224;6.000;2022-12-18T08:59:43;102781.56;;;-4.17;100.00
10806;BME280;5455;53.224;6.000;2022-12-18T09:02:10;102791.88;;;-4.08;100.00
10806;BME280;5455;53.224;6.000;2022-12-18T09:04:38;102790.81;;;-4.00;100.00
10806;BME280;5455;53.224;6.000;2022-12-18T09:07:06;102787.88;;;-3.92;100.00
10806;BME280;5455;53.224;6.000;2022-12-18T09:09:33;102784.72;;;-3.82;100.00
10806;BME280;5455;53.224;6.000;2022-12-18T09:12:00;102785.88;;;-3.72;100.00
10806;BME280;5455;53.224;6.000;2022-12-18T09:14:27;102780.88;;;-3.62;100.00
10806;BME280;5455;53.224;6.000;2022-12-18T09:16:54;102788.25;;;-3.51;100.00
10806;BME280;5455;53.224;6.000;2022-12-18T09:19:21;102787.78;;;-3.41;100.00
10806;BME280;5455;53.224;6.000;2022-12-18T09:21:48;102783.56;;;-3.30;100.00
10806;BME280;5455;53.224;6.000;2022-12-18T09:24:16;102781.78;;;-3.18;100.00
10806;BME280;5455;53.224;6.000;2022-12-18T09:26:43;102780.63;;;-3.04;100.00
10806;BME280;5455;53.224;6.000;2022-12-18T09:29:14;102782.84;;;-2.95;100.00
10806;BME280;5455;53.224;6.000;2022-12-18T09:31:44;102794.75;;;-2.84;100.00
10806;BME280;5455;53.224;6.000;2022-12-18T09:34:12;102794.91;;;-2.79;100.00
10806;BME280;5455;53.224;6.000;2022-12-18T09:36:39;102796.81;;;-2.80;100.00
10806;BME280;5455;53.224;6.000;2022-12-18T09:39:05;102799.13;;;-2.83;100.00
10806;BME280;5455;53.224;6.000;2022-12-18T09:44:39;102790.59;;;-2.80;100.00
10806;BME280;5455;53.224;6.000;2022-12-18T09:47:16;102777.81;;;-2.73;100.00
10806;BME280;5455;53.224;6.000;2022-12-18T09:49:50;102787.13;;;-2.69;100.00
10806;BME280;5455;53.224;6.000;2022-12-18T09:52:34;102779.19;;;-2.64;100.00
10806;BME280;5455;53.224;6.000;2022-12-18T09:55:06;102771.47;;;-2.60;100.00
10806;BME280;5455;53.224;6.000;2022-12-18T09:57:42;102770.44;;;-2.59;100.00
10806;BME280;5455;53.224;6.000;2022-12-18T10:00:18;102768.78;;;-2.60;100.00
10806;BME280;5455;53.224;6.000;2022-12-18T10:02:47;102761.50;;;-2.60;100.00
10806;BME280;5455;53.224;6.000;2022-12-18T10:08:10;102744.31;;;-2.47;100.00
10806;BME280;5455;53.224;6.000;2022-12-18T10:16:16;102749.94;;;-2.49;100.00
10806;BME280;5455;53.224;6.000;2022-12-18T10:21:18;102714.84;;;-2.49;100.00
10806;BME280;5455;53.224;6.000;2022-12-18T10:26:24;102718.34;;;-2.30;100.00
10806;BME280;5455;53.224;6.000;2022-12-18T10:28:53;102710.25;;;-2.30;100.00
10806;BME280;5455;53.224;6.000;2022-12-18T10:31:23;102700.84;;;-2.28;100.00
10806;BME280;5455;53.224;6.000;2022-12-18T10:33:51;102695.63;;;-2.22;100.00
10806;BME280;5455;53.224;6.000;2022-12-18T10:36:23;102696.69;;;-2.12;100.00
10806;BME280;5455;53.224;6.000;2022-12-18T10:38:51;102696.16;;;-2.02;100.00
10806;BME280;5455;53.224;6.000;2022-12-18T10:44:11;102717.63;;;-1.78;100.00
10806;BME280;5455;53.224;6.000;2022-12-18T10:46:38;102717.66;;;-1.66;100.00
10806;BME280;5455;53.224;6.000;2022-12-18T10:49:19;102721.06;;;-1.59;100.00
10806;BME280;5455;53.224;6.000;2022-12-18T10:51:47;102727.44;;;-1.53;100.00
10806;BME280;5455;53.224;6.000;2022-12-18T10:54:17;102726.53;;;-1.47;100.00
10806;BME280;5455;53.224;6.000;2022-12-18T10:56:45;102718.53;;;-1.42;100.00
10806;BME280;5455;53.224;6.000;2022-12-18T10:59:14;102703.13;;;-1.42;100.00
10806;BME280;5455;53.224;6.000;2022-12-18T11:01:59;102688.75;;;-1.54;100.00
10806;BME280;5455;53.224;6.000;2022-12-18T11:04:29;102686.25;;;-1.55;100.00
10806;BME280;5455;53.224;6.000;2022-12-18T11:07:05;102686.97;;;-1.60;100.00
10806;BME280;5455;53.224;6.000;2022-12-18T11:09:38;102676.75;;;-1.58;100.00
10806;BME280;5455;53.224;6.000;2022-12-18T11:12:18;102681.56;;;-1.60;100.00
10806;BME280;5455;53.224;6.000;2022-12-18T11:14:48;102685.22;;;-1.54;100.00
10806;BME280;5455;53.224;6.000;2022-12-18T11:17:19;102680.63;;;-1.54;100.00
10806;BME280;5455;53.224;6.000;2022-12-18T11:19:54;102673.69;;;-1.50;100.00
10806;BME280;5455;53.224;6.000;2022-12-18T11:22:30;102674.16;;;-1.53;100.00
10806;BME280;5455;53.224;6.000;2022-12-18T11:25:05;102678.53;;;-1.52;100.00
10806;BME280;5455;53.224;6.000;2022-12-18T11:31:18;102676.06;;;-1.42;100.00
10806;BME280;5455;53.224;6.000;2022-12-18T11:36:55;102660.53;;;-1.35;100.00
10806;BME280;5455;53.224;6.000;2022-12-18T11:42:51;102638.66;;;-1.33;100.00
10806;BME280;5455;53.224;6.000;2022-12-18T11:45:25;102627.47;;;-1.37;100.00
10806;BME280;5455;53.224;6.000;2022-12-18T11:50:53;102624.09;;;-1.32;100.00
10806;BME280;5455;53.224;6.000;2022-12-18T11:53:21;102609.09;;;-1.23;100.00
10806;BME280;5455;53.224;6.000;2022-12-18T11:56:03;102618.66;;;-1.21;100.00
10806;BME280;5455;53.224;6.000;2022-12-18T12:14:27;102560.25;;;-1.05;100.00
10806;BME280;5455;53.224;6.000;2022-12-18T12:22:45;102548.94;;;-1.02;100.00
10806;BME280;5455;53.224;6.000;2022-12-18T12:26:08;102543.50;;;-0.90;100.00
10806;BME280;5455;53.224;6.000;2022-12-18T12:31:42;102539.25;;;-0.86;100.00
10806;BME280;5455;53.224;6.000;2022-12-18T12:34:25;102528.31;;;-0.91;100.00
10806;BME280;5455;53.224;6.000;2022-12-18T12:40:05;102510.19;;;-0.91;100.00
10806;BME280;5455;53.224;6.000;2022-12-18T12:46:07;102516.13;;;-0.77;100.00
10806;BME280;5455;53.224;6.000;2022-12-18T12:48:47;102512.44;;;-0.71;100.00
10806;BME280;5455;53.224;6.000;2022-12-18T12:53:48;102506.81;;;-0.70;100.00
10806;BME280;5455;53.224;6.000;2022-12-18T12:56:20;102502.03;;;-0.63;100.00
10806;BME280;5455;53.224;6.000;2022-12-18T13:04:43;102491.53;;;-0.59;100.00
10806;BME280;5455;53.224;6.000;2022-12-18T13:07:18;102499.75;;;-0.54;100.00
10806;BME280;5455;53.224;6.000;2022-12-18T13:15:40;102501.97;;;-0.51;100.00
10806;BME280;5455;53.224;6.000;2022-12-18T13:28:58;102478.81;;;-0.42;100.00
10806;BME280;5455;53.224;6.000;2022-12-18T13:34:25;102492.38;;;-0.42;100.00
10806;BME280;5455;53.224;6.000;2022-12-18T13:36:57;102497.31;;;-0.39;100.00
10806;BME280;5455;53.224;6.000;2022-12-18T13:39:43;102493.69;;;-0.44;100.00
10806;BME280;5455;53.224;6.000;2022-12-18T13:44:58;102486.81;;;-0.52;100.00
10806;BME280;5455;53.224;6.000;2022-12-18T13:47:33;102491.41;;;-0.52;100.00
10806;BME280;5455;53.224;6.000;2022-12-18T13:50:09;102486.47;;;-0.56;100.00
10806;BME280;5455;53.224;6.000;2022-12-18T13:52:39;102482.69;;;-0.54;100.00
10806;BME280;5455;53.224;6.000;2022-12-18T13:55:14;102470.44;;;-0.57;100.00
10806;BME280;5455;53.224;6.000;2022-12-18T13:57:43;102467.00;;;-0.52;100.00
10806;BME280;5455;53.224;6.000;2022-12-18T14:02:50;102457.50;;;-0.55;100.00
10806;BME280;5455;53.224;6.000;2022-12-18T14:05:36;102452.31;;;-0.57;100.00
10806;BME280;5455;53.224;6.000;2022-12-18T14:08:11;102452.81;;;-0.60;100.00
10806;BME280;5455;53.224;6.000;2022-12-18T14:10:41;102450.91;;;-0.59;100.00
10806;BME280;5455;53.224;6.000;2022-12-18T14:13:30;102439.75;;;-0.63;100.00
10806;BME280;5455;53.224;6.000;2022-12-18T14:16:00;102442.94;;;-0.66;100.00
10806;BME280;5455;53.224;6.000;2022-12-18T14:18:45;102445.16;;;-0.63;100.00
10806;BME280;5455;53.224;6.000;2022-12-18T14:21:22;102431.06;;;-0.65;100.00
10806;BME280;5455;53.224;6.000;2022-12-18T14:24:03;102422.09;;;-0.65;100.00
10806;BME280;5455;53.224;6.000;2022-12-18T14:26:32;102425.91;;;-0.66;100.00
10806;BME280;5455;53.224;6.000;2022-12-18T14:29:14;102417.78;;;-0.66;100.00
10806;BME280;5455;53.224;6.000;2022-12-18T14:31:45;102413.41;;;-0.67;100.00
10806;BME280;5455;53.224;6.000;2022-12-18T14:34:18;102391.97;;;-0.69;100.00
10806;BME280;5455;53.224;6.000;2022-12-18T14:36:52;102386.50;;;-0.74;100.00
10806;BME280;5455;53.224;6.000;2022-12-18T14:39:22;102369.09;;;-0.78;100.00
10806;BME280;5455;53.224;6.000;2022-12-18T14:41:52;102379.91;;;-0.78;100.00
10806;BME280;5455;53.224;6.000;2022-12-18T14:44:19;102365.81;;;-0.80;100.00
10806;BME280;5455;53.224;6.000;2022-12-18T14:46:50;102359.84;;;-0.82;100.00
10806;BME280;5455;53.224;6.000;2022-12-18T14:49:30;102357.84;;;-0.86;100.00
10806;BME280;5455;53.224;6.000;2022-12-18T14:52:03;102350.47;;;-0.91;100.00
10806;BME280;5455;53.224;6.000;2022-12-18T14:54:34;102352.59;;;-0.93;100.00
10806;BME280;5455;53.224;6.000;2022-12-18T14:57:05;102344.72;;;-0.94;100.00
10806;BME280;5455;53.224;6.000;2022-12-18T14:59:32;102337.59;;;-1.00;100.00
10806;BME280;5455;53.224;6.000;2022-12-18T15:02:25;102333.50;;;-1.03;100.00
10806;BME280;5455;53.224;6.000;2022-12-18T15:05:05;102334.22;;;-1.07;100.00
10806;BME280;5455;53.224;6.000;2022-12-18T15:07:43;102334.22;;;-1.07;100.00
10806;BME280;5455;53.224;6.000;2022-12-18T15:10:18;102336.34;;;-1.09;100.00